sensor_id;sensor_type;location;lat;lon;timestamp;temperature;humidity
18794;DHT22;29610;49.022;12.114;2024-01-15T00:01:33;-5.60;99.90
18794;DHT22;29610;49.022;12.114;2024-01-15T00:04:01;-5.70;99.90
18794;DHT22;29610;49.022;12.114;2024-01-15T00:06:30;-5.70;99.90
18794;DHT22;29610;49.022;12.114;2024-01-15T00:09:00;-5.70;99.90
18794;DHT22;29610;49.022;12.114;2024-01-15T00:11:28;-5.60;99.90
18794;DHT22;29610;49.022;12.114;2024-01-15T00:13:58;-5.50;99.90
18794;DHT22;29610;49.022;12.114;2024-01-15T00:16:26;-5.30;99.90
18794;DHT22;29610;49.022;12.114;2024-01-15T00:18:54;-5.10;99.90
18794;DHT22;29610;49.022;12.114;2024-01-15T00:21:23;-4.90;99.90
18794;DHT22;29610;49.022;12.114;2024-01-15T00:23:51;-4.60;99.90
18794;DHT22;29610;49.022;12.114;2024-01-15T00:26:20;-4.40;99.90
18794;DHT22;29610;49.022;12.114;2024-01-15T00:28:48;-4.30;99.90
18794;DHT22;29610;49.022;12.114;2024-01-15T00:31:19;-4.10;99.90
18794;DHT22;29610;49.022;12.114;2024-01-15T00:33:47;-3.80;99.90
18794;DHT22;29610;49.022;12.114;2024-01-15T00:36:16;-3.70;99.90
18794;DHT22;29610;49.022;12.114;2024-01-15T00:38:44;-3.60;99.90
18794;DHT22;29610;49.022;12.114;2024-01-15T00:41:14;-3.50;99.90
18794;DHT22;29610;49.022;12.114;2024-01-15T00:43:42;-3.50;99.90
18794;DHT22;29610;49.022;12.114;2024-01-15T00:46:11;-3.50;99.90
18794;DHT22;29610;49.022;12.114;2024-01-15T00:48:39;-3.50;99.90
18794;DHT22;29610;49.022;12.114;2024-01-15T00:51:08;-3.50;99.90
18794;DHT22;29610;49.022;12.114;2024-01-15T00:53:36;-3.40;99.90
18794;DHT22;29610;49.022;12.114;2024-01-15T00:56:04;-3.40;99.90
18794;DHT22;29610;49.022;12.114;2024-01-15T00:58:33;-3.50;99.90
18794;DHT22;29610;49.022;12.114;2024-01-15T01:01:01;-3.50;99.90
18794;DHT22;29610;49.022;12.114;2024-01-15T01:03:29;-3.50;99.90
18794;DHT22;29610;49.022;12.114;2024-01-15T01:05:59;-3.50;99.90
18794;DHT22;29610;49.022;12.114;2024-01-15T01:08:27;-3.50;99.90
18794;DHT22;29610;49.022;12.114;2024-01-15T01:10:56;-3.50;99.90
18794;DHT22;29610;49.022;12.114;2024-01-15T01:13:24;-3.60;99.90
18794;DHT22;29610;49.022;12.114;2024-01-15T01:15:52;-4.30;99.90
18794;DHT22;29610;49.022;12.114;2024-01-15T01:18:21;-3.50;99.90
18794;DHT22;29610;49.022;12.114;2024-01-15T01:20:49;-3.50;99.90
18794;DHT22;29610;49.022;12.114;2024-01-15T01:23:19;-3.40;99.90
18794;DHT22;29610;49.022;12.114;2024-01-15T01:25:47;-3.50;99.90
18794;DHT22;29610;49.022;12.114;2024-01-15T01:28:15;-3.40;99.90
18794;DHT22;29610;49.022;12.114;2024-01-15T01:30:44;-3.40;99.90
18794;DHT22;29610;49.022;12.114;2024-01-15T01:33:12;-3.40;99.90
18794;DHT22;29610;49.022;12.114;2024-01-15T01:35:40;-3.40;99.90
18794;DHT22;29610;49.022;12.114;2024-01-15T01:38:10;-3.40;99.90
18794;DHT22;29610;49.022;12.114;2024-01-15T01:40:40;-3.40;99.90
18794;DHT22;29610;49.022;12.114;2024-01-15T01:43:09;-3.30;99.90
18794;DHT22;29610;49.022;12.114;2024-01-15T01:45:38;-3.30;99.90
18794;DHT22;29610;49.022;12.114;2024-01-15T01:48:07;-3.30;99.90
18794;DHT22;29610;49.022;12.114;2024-01-15T01:50:35;-3.30;99.90
18794;DHT22;29610;49.022;12.114;2024-01-15T01:53:04;-3.30;99.90
18794;DHT22;29610;49.022;12.114;2024-01-15T01:55:33;-3.30;99.90
18794;DHT22;29610;49.022;12.114;2024-01-15T01:58:04;-3.30;99.90
18794;DHT22;29610;49.022;12.114;2024-01-15T02:00:34;-3.30;99.90
18794;DHT22;29610;49.022;12.114;2024-01-15T02:03:04;-3.20;99.90
18794;DHT22;29610;49.022;12.114;2024-01-15T02:05:33;-3.20;99.90
18794;DHT22;29610;49.022;12.114;2024-01-15T02:08:03;-3.70;99.90
18794;DHT22;29610;49.022;12.114;2024-01-15T02:10:32;-3.20;99.90
18794;DHT22;29610;49.022;12.114;2024-01-15T02:13:00;-3.20;99.90
18794;DHT22;29610;49.022;12.114;2024-01-15T02:15:30;-3.20;99.90
18794;DHT22;29610;49.022;12.114;2024-01-15T02:17:59;-2.90;99.90
18794;DHT22;29610;49.022;12.114;2024-01-15T02:20:28;-3.20;99.90
18794;DHT22;29610;49.022;12.114;2024-01-15T02:23:10;-3.20;99.90
18794;DHT22;29610;49.022;12.114;2024-01-15T02:25:40;-3.20;99.90
18794;DHT22;29610;49.022;12.114;2024-01-15T02:28:11;-3.20;99.90
18794;DHT22;29610;49.022;12.114;2024-01-15T02:30:41;-3.20;99.90
18794;DHT22;29610;49.022;12.114;2024-01-15T02:33:11;-3.10;99.90
18794;DHT22;29610;49.022;12.114;2024-01-15T02:35:40;-3.10;99.90
18794;DHT22;29610;49.022;12.114;2024-01-15T02:38:10;-3.10;99.90
18794;DHT22;29610;49.022;12.114;2024-01-15T02:40:38;-3.10;99.90
18794;DHT22;29610;49.022;12.114;2024-01-15T02:43:07;-3.10;99.90
18794;DHT22;29610;49.022;12.114;2024-01-15T02:45:35;-3.10;99.90
18794;DHT22;29610;49.022;12.114;2024-01-15T02:48:04;-3.00;99.90
18794;DHT22;29610;49.022;12.114;2024-01-15T02:50:33;-3.00;99.90
18794;DHT22;29610;49.022;12.114;2024-01-15T02:53:01;-3.00;99.90
18794;DHT22;29610;49.022;12.114;2024-01-15T02:55:31;-2.90;99.90
18794;DHT22;29610;49.022;12.114;2024-01-15T02:57:59;-2.90;99.90
18794;DHT22;29610;49.022;12.114;2024-01-15T03:00:28;-2.90;99.90
18794;DHT22;29610;49.022;12.114;2024-01-15T03:02:56;-2.90;99.90
18794;DHT22;29610;49.022;12.114;2024-01-15T03:05:24;-2.90;99.90
18794;DHT22;29610;49.022;12.114;2024-01-15T03:07:53;-2.90;99.90
18794;DHT22;29610;49.022;12.114;2024-01-15T03:10:21;-2.90;99.90
18794;DHT22;29610;49.022;12.114;2024-01-15T03:12:50;-2.80;99.90
18794;DHT22;29610;49.022;12.114;2024-01-15T03:15:19;-2.80;99.90
18794;DHT22;29610;49.022;12.114;2024-01-15T03:17:47;-2.70;99.90
18794;DHT22;29610;49.022;12.114;2024-01-15T03:20:15;-2.70;99.90
18794;DHT22;29610;49.022;12.114;2024-01-15T03:22:43;-2.70;99.90
18794;DHT22;29610;49.022;12.114;2024-01-15T03:25:12;-2.70;99.90
18794;DHT22;29610;49.022;12.114;2024-01-15T03:27:40;-2.70;99.90
18794;DHT22;29610;49.022;12.114;2024-01-15T03:30:11;-2.70;99.90
18794;DHT22;29610;49.022;12.114;2024-01-15T03:32:40;-2.70;99.90
18794;DHT22;29610;49.022;12.114;2024-01-15T03:35:08;-2.70;99.90
18794;DHT22;29610;49.022;12.114;2024-01-15T03:37:37;-2.70;99.90
18794;DHT22;29610;49.022;12.114;2024-01-15T03:40:06;-2.60;99.90
18794;DHT22;29610;49.022;12.114;2024-01-15T03:42:35;-2.60;99.90
18794;DHT22;29610;49.022;12.114;2024-01-15T03:45:04;-2.60;99.90
18794;DHT22;29610;49.022;12.114;2024-01-15T03:47:34;-2.60;99.90
18794;DHT22;29610;49.022;12.114;2024-01-15T03:50:03;-2.60;99.90
18794;DHT22;29610;49.022;12.114;2024-01-15T03:52:32;-2.50;99.90
18794;DHT22;29610;49.022;12.114;2024-01-15T03:55:01;-2.50;99.90
18794;DHT22;29610;49.022;12.114;2024-01-15T03:57:29;-2.50;99.90
18794;DHT22;29610;49.022;12.114;2024-01-15T03:59:57;-2.40;99.90
18794;DHT22;29610;49.022;12.114;2024-01-15T04:02:25;-2.50;99.90
18794;DHT22;29610;49.022;12.114;2024-01-15T04:04:55;-2.40;99.90
18794;DHT22;29610;49.022;12.114;2024-01-15T04:07:23;-2.40;99.90
18794;DHT22;29610;49.022;12.114;2024-01-15T04:09:52;-2.40;99.90
18794;DHT22;29610;49.022;12.114;2024-01-15T04:12:20;-2.40;99.90
18794;DHT22;29610;49.022;12.114;2024-01-15T04:14:47;-2.40;99.90
18794;DHT22;29610;49.022;12.114;2024-01-15T04:17:15;-2.50;99.90
18794;DHT22;29610;49.022;12.114;2024-01-15T04:19:44;-2.60;99.90
18794;DHT22;29610;49.022;12.114;2024-01-15T04:22:16;-2.70;99.90
18794;DHT22;29610;49.022;12.114;2024-01-15T04:24:44;-2.70;99.90
18794;DHT22;29610;49.022;12.114;2024-01-15T04:27:12;-2.70;99.90
18794;DHT22;29610;49.022;12.114;2024-01-15T04:29:41;-2.60;99.90
18794;DHT22;29610;49.022;12.114;2024-01-15T04:32:11;-2.50;99.90
18794;DHT22;29610;49.022;12.114;2024-01-15T04:34:39;-2.40;99.90
18794;DHT22;29610;49.022;12.114;2024-01-15T04:37:08;-2.40;99.90
18794;DHT22;29610;49.022;12.114;2024-01-15T04:39:37;-2.40;99.90
18794;DHT22;29610;49.022;12.114;2024-01-15T04:42:06;-2.40;99.90
18794;DHT22;29610;49.022;12.114;2024-01-15T04:44:34;-2.40;99.90
18794;DHT22;29610;49.022;12.114;2024-01-15T04:47:03;-2.30;99.90
18794;DHT22;29610;49.022;12.114;2024-01-15T04:49:31;-2.40;99.90
18794;DHT22;29610;49.022;12.114;2024-01-15T04:52:00;-2.40;99.90
18794;DHT22;29610;49.022;12.114;2024-01-15T04:54:29;-2.40;99.90
18794;DHT22;29610;49.022;12.114;2024-01-15T04:56:58;-2.40;99.90
18794;DHT22;29610;49.022;12.114;2024-01-15T04:59:26;-2.40;99.90
18794;DHT22;29610;49.022;12.114;2024-01-15T05:01:55;-2.40;99.90
18794;DHT22;29610;49.022;12.114;2024-01-15T05:04:24;-1.70;99.90
18794;DHT22;29610;49.022;12.114;2024-01-15T05:06:53;-2.40;99.90
18794;DHT22;29610;49.022;12.114;2024-01-15T05:09:21;-2.40;99.90
18794;DHT22;29610;49.022;12.114;2024-01-15T05:11:49;-2.40;99.90
18794;DHT22;29610;49.022;12.114;2024-01-15T05:14:19;-2.40;99.90
18794;DHT22;29610;49.022;12.114;2024-01-15T05:16:48;-2.40;99.90
18794;DHT22;29610;49.022;12.114;2024-01-15T05:19:18;-2.40;99.90
18794;DHT22;29610;49.022;12.114;2024-01-15T05:21:47;-2.40;99.90
18794;DHT22;29610;49.022;12.114;2024-01-15T05:24:15;-2.40;99.90
18794;DHT22;29610;49.022;12.114;2024-01-15T05:26:43;-2.30;99.90
18794;DHT22;29610;49.022;12.114;2024-01-15T05:29:12;-2.20;99.90
18794;DHT22;29610;49.022;12.114;2024-01-15T05:31:41;-2.20;99.90
18794;DHT22;29610;49.022;12.114;2024-01-15T05:34:10;-2.20;99.90
18794;DHT22;29610;49.022;12.114;2024-01-15T05:36:38;-2.20;99.90
18794;DHT22;29610;49.022;12.114;2024-01-15T05:39:06;-2.20;99.90
18794;DHT22;29610;49.022;12.114;2024-01-15T05:41:35;-2.20;99.90
18794;DHT22;29610;49.022;12.114;2024-01-15T05:44:04;-2.20;99.90
18794;DHT22;29610;49.022;12.114;2024-01-15T05:46:32;-2.30;99.90
18794;DHT22;29610;49.022;12.114;2024-01-15T05:49:02;-2.30;99.90
18794;DHT22;29610;49.022;12.114;2024-01-15T05:51:31;-1.70;99.90
18794;DHT22;29610;49.022;12.114;2024-01-15T05:53:59;-2.30;99.90
18794;DHT22;29610;49.022;12.114;2024-01-15T05:56:28;-2.30;99.90
18794;DHT22;29610;49.022;12.114;2024-01-15T05:58:56;-2.20;99.90
18794;DHT22;29610;49.022;12.114;2024-01-15T06:01:24;-2.20;99.90
18794;DHT22;29610;49.022;12.114;2024-01-15T06:03:52;-2.20;99.90
18794;DHT22;29610;49.022;12.114;2024-01-15T06:06:22;-2.20;99.90
18794;DHT22;29610;49.022;12.114;2024-01-15T06:08:50;-2.20;99.90
18794;DHT22;29610;49.022;12.114;2024-01-15T06:11:19;-2.10;99.90
18794;DHT22;29610;49.022;12.114;2024-01-15T06:13:47;-2.10;99.90
18794;DHT22;29610;49.022;12.114;2024-01-15T06:16:15;-2.00;99.90
18794;DHT22;29610;49.022;12.114;2024-01-15T06:18:46;-2.00;99.90
18794;DHT22;29610;49.022;12.114;2024-01-15T06:21:14;-1.90;99.90
18794;DHT22;29610;49.022;12.114;2024-01-15T06:23:45;-1.90;99.90
18794;DHT22;29610;49.022;12.114;2024-01-15T06:26:13;-1.90;99.90
18794;DHT22;29610;49.022;12.114;2024-01-15T06:28:41;-1.90;99.90
18794;DHT22;29610;49.022;12.114;2024-01-15T06:31:10;-1.90;99.90
18794;DHT22;29610;49.022;12.114;2024-01-15T06:33:38;-1.90;99.90
18794;DHT22;29610;49.022;12.114;2024-01-15T06:36:07;-1.80;99.90
18794;DHT22;29610;49.022;12.114;2024-01-15T06:38:36;-1.90;99.90
18794;DHT22;29610;49.022;12.114;2024-01-15T06:41:05;-1.90;99.90
18794;DHT22;29610;49.022;12.114;2024-01-15T06:43:34;-1.80;99.90
18794;DHT22;29610;49.022;12.114;2024-01-15T06:46:02;-1.80;99.90
18794;DHT22;29610;49.022;12.114;2024-01-15T06:48:34;-1.80;99.90
18794;DHT22;29610;49.022;12.114;2024-01-15T06:51:03;-1.80;99.90
18794;DHT22;29610;49.022;12.114;2024-01-15T06:53:32;-1.80;99.90
18794;DHT22;29610;49.022;12.114;2024-01-15T06:56:00;-1.80;99.90
18794;DHT22;29610;49.022;12.114;2024-01-15T06:58:33;-1.80;99.90
18794;DHT22;29610;49.022;12.114;2024-01-15T07:01:01;-1.90;99.90
18794;DHT22;29610;49.022;12.114;2024-01-15T07:03:30;-1.90;99.90
18794;DHT22;29610;49.022;12.114;2024-01-15T07:05:58;-1.80;99.90
18794;DHT22;29610;49.022;12.114;2024-01-15T07:08:26;-1.80;99.90
18794;DHT22;29610;49.022;12.114;2024-01-15T07:10:54;-1.80;99.90
18794;DHT22;29610;49.022;12.114;2024-01-15T07:13:23;-1.30;99.90
18794;DHT22;29610;49.022;12.114;2024-01-15T07:15:52;-1.80;99.90
18794;DHT22;29610;49.022;12.114;2024-01-15T07:18:21;-1.80;99.90
18794;DHT22;29610;49.022;12.114;2024-01-15T07:20:50;-1.70;99.90
18794;DHT22;29610;49.022;12.114;2024-01-15T07:23:18;-1.70;99.90
18794;DHT22;29610;49.022;12.114;2024-01-15T07:25:46;-1.60;99.90
18794;DHT22;29610;49.022;12.114;2024-01-15T07:28:15;-1.60;99.90
18794;DHT22;29610;49.022;12.114;2024-01-15T07:30:43;-1.60;99.90
18794;DHT22;29610;49.022;12.114;2024-01-15T07:33:13;-1.50;99.90
18794;DHT22;29610;49.022;12.114;2024-01-15T07:35:42;-1.50;99.90
18794;DHT22;29610;49.022;12.114;2024-01-15T07:38:10;-1.50;99.90
18794;DHT22;29610;49.022;12.114;2024-01-15T07:40:39;-1.40;99.90
18794;DHT22;29610;49.022;12.114;2024-01-15T07:43:07;-1.40;99.90
18794;DHT22;29610;49.022;12.114;2024-01-15T07:45:35;-1.30;99.90
18794;DHT22;29610;49.022;12.114;2024-01-15T07:48:04;-1.30;99.90
18794;DHT22;29610;49.022;12.114;2024-01-15T07:50:35;-1.20;99.90
18794;DHT22;29610;49.022;12.114;2024-01-15T07:53:05;-1.20;99.90
18794;DHT22;29610;49.022;12.114;2024-01-15T07:55:33;-1.10;99.90
18794;DHT22;29610;49.022;12.114;2024-01-15T07:58:01;-1.20;99.90
18794;DHT22;29610;49.022;12.114;2024-01-15T08:00:42;-1.10;99.90
18794;DHT22;29610;49.022;12.114;2024-01-15T08:03:11;-1.00;99.90
18794;DHT22;29610;49.022;12.114;2024-01-15T08:05:41;-1.00;99.90
18794;DHT22;29610;49.022;12.114;2024-01-15T08:08:09;-0.90;99.90
18794;DHT22;29610;49.022;12.114;2024-01-15T08:10:38;-0.90;99.90
18794;DHT22;29610;49.022;12.114;2024-01-15T08:13:06;-0.90;99.90
18794;DHT22;29610;49.022;12.114;2024-01-15T08:15:36;-0.90;99.90
18794;DHT22;29610;49.022;12.114;2024-01-15T08:18:04;-0.80;99.90
18794;DHT22;29610;49.022;12.114;2024-01-15T08:20:33;-0.80;99.90
18794;DHT22;29610;49.022;12.114;2024-01-15T08:23:05;-0.80;99.70
18794;DHT22;29610;49.022;12.114;2024-01-15T08:25:33;-0.70;99.80
18794;DHT22;29610;49.022;12.114;2024-01-15T08:28:02;-0.60;99.60
18794;DHT22;29610;49.022;12.114;2024-01-15T08:30:30;-0.60;99.50
18794;DHT22;29610;49.022;12.114;2024-01-15T08:32:59;-0.50;99.30
18794;DHT22;29610;49.022;12.114;2024-01-15T08:35:37;-0.50;99.10
18794;DHT22;29610;49.022;12.114;2024-01-15T08:38:07;-0.40;98.90
18794;DHT22;29610;49.022;12.114;2024-01-15T08:40:35;-0.30;98.30
18794;DHT22;29610;49.022;12.114;2024-01-15T08:43:04;-0.20;98.20
18794;DHT22;29610;49.022;12.114;2024-01-15T08:45:33;-0.10;98.00
18794;DHT22;29610;49.022;12.114;2024-01-15T08:48:02;-0.10;98.10
18794;DHT22;29610;49.022;12.114;2024-01-15T08:50:31;-0.10;97.60
18794;DHT22;29610;49.022;12.114;2024-01-15T08:52:59;0.00;97.80
18794;DHT22;29610;49.022;12.114;2024-01-15T08:55:29;0.10;97.60
18794;DHT22;29610;49.022;12.114;2024-01-15T08:57:57;0.10;97.20
18794;DHT22;29610;49.022;12.114;2024-01-15T09:00:26;0.20;97.20
18794;DHT22;29610;49.022;12.114;2024-01-15T09:02:54;0.30;97.10
18794;DHT22;29610;49.022;12.114;2024-01-15T09:05:23;0.40;97.10
18794;DHT22;29610;49.022;12.114;2024-01-15T09:07:51;0.40;96.50
18794;DHT22;29610;49.022;12.114;2024-01-15T09:10:20;0.50;96.60
18794;DHT22;29610;49.022;12.114;2024-01-15T09:12:50;0.50;96.40
18794;DHT22;29610;49.022;12.114;2024-01-15T09:15:19;0.50;96.40
18794;DHT22;29610;49.022;12.114;2024-01-15T09:17:47;0.50;96.20
18794;DHT22;29610;49.022;12.114;2024-01-15T09:20:15;0.60;96.20
18794;DHT22;29610;49.022;12.114;2024-01-15T09:22:44;0.60;96.00
18794;DHT22;29610;49.022;12.114;2024-01-15T09:25:12;0.70;95.90
18794;DHT22;29610;49.022;12.114;2024-01-15T09:27:41;0.60;95.60
18794;DHT22;29610;49.022;12.114;2024-01-15T09:30:11;0.60;95.70
18794;DHT22;29610;49.022;12.114;2024-01-15T09:32:40;0.60;95.90
18794;DHT22;29610;49.022;12.114;2024-01-15T09:35:09;0.70;95.60
18794;DHT22;29610;49.022;12.114;2024-01-15T09:37:38;0.80;95.70
18794;DHT22;29610;49.022;12.114;2024-01-15T09:40:14;0.80;95.70
18794;DHT22;29610;49.022;12.114;2024-01-15T09:42:44;0.80;96.30
18794;DHT22;29610;49.022;12.114;2024-01-15T09:45:15;0.80;96.40
18794;DHT22;29610;49.022;12.114;2024-01-15T09:47:44;0.60;96.90
18794;DHT22;29610;49.022;12.114;2024-01-15T09:50:13;0.70;97.00
18794;DHT22;29610;49.022;12.114;2024-01-15T09:52:43;0.70;97.10
18794;DHT22;29610;49.022;12.114;2024-01-15T09:55:13;0.80;97.00
18794;DHT22;29610;49.022;12.114;2024-01-15T09:57:44;0.90;96.30
18794;DHT22;29610;49.022;12.114;2024-01-15T10:00:17;1.30;96.40
18794;DHT22;29610;49.022;12.114;2024-01-15T10:02:46;1.00;96.30
18794;DHT22;29610;49.022;12.114;2024-01-15T10:05:16;1.20;96.10
18794;DHT22;29610;49.022;12.114;2024-01-15T10:07:46;1.40;95.70
18794;DHT22;29610;49.022;12.114;2024-01-15T10:10:16;1.60;95.50
18794;DHT22;29610;49.022;12.114;2024-01-15T10:12:45;1.20;96.40
18794;DHT22;29610;49.022;12.114;2024-01-15T10:15:14;0.90;98.00
18794;DHT22;29610;49.022;12.114;2024-01-15T10:17:44;0.60;98.60
18794;DHT22;29610;49.022;12.114;2024-01-15T10:20:13;0.50;99.10
18794;DHT22;29610;49.022;12.114;2024-01-15T10:22:42;0.50;99.30
18794;DHT22;29610;49.022;12.114;2024-01-15T10:25:11;0.50;99.90
18794;DHT22;29610;49.022;12.114;2024-01-15T10:27:40;0.60;99.90
18794;DHT22;29610;49.022;12.114;2024-01-15T10:30:10;0.70;99.90
18794;DHT22;29610;49.022;12.114;2024-01-15T10:32:57;0.70;99.50
18794;DHT22;29610;49.022;12.114;2024-01-15T10:35:29;0.60;99.20
18794;DHT22;29610;49.022;12.114;2024-01-15T10:37:58;0.70;99.70
18794;DHT22;29610;49.022;12.114;2024-01-15T10:40:27;0.80;99.70
18794;DHT22;29610;49.022;12.114;2024-01-15T10:42:56;0.70;99.90
18794;DHT22;29610;49.022;12.114;2024-01-15T10:45:25;0.80;99.90
18794;DHT22;29610;49.022;12.114;2024-01-15T10:47:55;0.90;99.90
18794;DHT22;29610;49.022;12.114;2024-01-15T10:50:26;1.10;99.90
18794;DHT22;29610;49.022;12.114;2024-01-15T10:52:55;1.40;99.60
18794;DHT22;29610;49.022;12.114;2024-01-15T10:55:25;1.40;99.10
18794;DHT22;29610;49.022;12.114;2024-01-15T10:57:55;1.40;98.20
18794;DHT22;29610;49.022;12.114;2024-01-15T11:00:25;1.40;98.20
18794;DHT22;29610;49.022;12.114;2024-01-15T11:02:56;1.40;98.10
18794;DHT22;29610;49.022;12.114;2024-01-15T11:05:25;1.50;97.50
18794;DHT22;29610;49.022;12.114;2024-01-15T11:07:55;1.70;97.30
18794;DHT22;29610;49.022;12.114;2024-01-15T11:10:39;1.90;96.40
18794;DHT22;29610;49.022;12.114;2024-01-15T11:13:10;1.90;96.00
18794;DHT22;29610;49.022;12.114;2024-01-15T11:15:55;1.90;96.00
18794;DHT22;29610;49.022;12.114;2024-01-15T11:18:26;1.70;95.50
18794;DHT22;29610;49.022;12.114;2024-01-15T11:21:20;1.60;95.70
18794;DHT22;29610;49.022;12.114;2024-01-15T11:23:51;1.50;95.30
18794;DHT22;29610;49.022;12.114;2024-01-15T11:26:44;1.30;95.50
18794;DHT22;29610;49.022;12.114;2024-01-15T11:29:29;1.00;96.10
18794;DHT22;29610;49.022;12.114;2024-01-15T11:32:03;0.90;96.00
18794;DHT22;29610;49.022;12.114;2024-01-15T11:34:53;0.90;96.40
18794;DHT22;29610;49.022;12.114;2024-01-15T11:37:26;0.80;96.10
18794;DHT22;29610;49.022;12.114;2024-01-15T11:40:00;0.80;96.40
18794;DHT22;29610;49.022;12.114;2024-01-15T11:42:31;0.80;96.40
18794;DHT22;29610;49.022;12.114;2024-01-15T11:45:00;0.70;96.40
18794;DHT22;29610;49.022;12.114;2024-01-15T11:50:47;0.70;96.70
18794;DHT22;29610;49.022;12.114;2024-01-15T11:53:24;0.70;96.60
18794;DHT22;29610;49.022;12.114;2024-01-15T11:55:58;0.70;96.50
18794;DHT22;29610;49.022;12.114;2024-01-15T11:58:29;0.70;96.50
18794;DHT22;29610;49.022;12.114;2024-01-15T12:00:58;0.70;96.30
18794;DHT22;29610;49.022;12.114;2024-01-15T12:03:26;0.60;96.20
18794;DHT22;29610;49.022;12.114;2024-01-15T12:05:56;0.60;96.20
18794;DHT22;29610;49.022;12.114;2024-01-15T12:08:26;0.60;96.50
18794;DHT22;29610;49.022;12.114;2024-01-15T12:10:55;0.70;96.60
18794;DHT22;29610;49.022;12.114;2024-01-15T12:13:24;0.70;96.40
18794;DHT22;29610;49.022;12.114;2024-01-15T12:15:54;0.70;96.70
18794;DHT22;29610;49.022;12.114;2024-01-15T12:18:22;0.60;96.90
18794;DHT22;29610;49.022;12.114;2024-01-15T12:20:55;0.60;97.20
18794;DHT22;29610;49.022;12.114;2024-01-15T12:23:24;0.70;97.40
18794;DHT22;29610;49.022;12.114;2024-01-15T12:25:54;0.80;97.50
18794;DHT22;29610;49.022;12.114;2024-01-15T12:28:22;0.80;97.30
18794;DHT22;29610;49.022;12.114;2024-01-15T12:30:50;1.00;97.50
18794;DHT22;29610;49.022;12.114;2024-01-15T12:33:19;1.00;97.30
18794;DHT22;29610;49.022;12.114;2024-01-15T12:35:48;1.00;96.80
18794;DHT22;29610;49.022;12.114;2024-01-15T12:38:20;0.90;97.00
18794;DHT22;29610;49.022;12.114;2024-01-15T12:40:48;0.90;96.80
18794;DHT22;29610;49.022;12.114;2024-01-15T12:43:17;0.90;97.50
18794;DHT22;29610;49.022;12.114;2024-01-15T12:45:46;1.10;97.40
18794;DHT22;29610;49.022;12.114;2024-01-15T12:48:15;1.00;97.10
18794;DHT22;29610;49.022;12.114;2024-01-15T12:50:45;0.90;97.10
18794;DHT22;29610;49.022;12.114;2024-01-15T12:53:14;0.90;97.30
18794;DHT22;29610;49.022;12.114;2024-01-15T12:55:43;0.70;97.40
18794;DHT22;29610;49.022;12.114;2024-01-15T12:58:12;0.80;97.80
18794;DHT22;29610;49.022;12.114;2024-01-15T13:00:40;0.70;97.90
18794;DHT22;29610;49.022;12.114;2024-01-15T13:03:08;0.60;98.30
18794;DHT22;29610;49.022;12.114;2024-01-15T13:05:37;0.60;98.30
18794;DHT22;29610;49.022;12.114;2024-01-15T13:08:06;0.70;98.40
18794;DHT22;29610;49.022;12.114;2024-01-15T13:10:34;0.70;98.40
18794;DHT22;29610;49.022;12.114;2024-01-15T13:13:04;0.70;98.50
18794;DHT22;29610;49.022;12.114;2024-01-15T13:15:33;0.70;98.60
18794;DHT22;29610;49.022;12.114;2024-01-15T13:18:02;0.70;98.70
18794;DHT22;29610;49.022;12.114;2024-01-15T13:20:30;0.70;98.40
18794;DHT22;29610;49.022;12.114;2024-01-15T13:22:59;0.60;98.60
18794;DHT22;29610;49.022;12.114;2024-01-15T13:25:27;0.60;99.00
18794;DHT22;29610;49.022;12.114;2024-01-15T13:27:55;0.70;99.00
18794;DHT22;29610;49.022;12.114;2024-01-15T13:30:25;0.80;98.90
18794;DHT22;29610;49.022;12.114;2024-01-15T13:32:53;0.70;98.60
18794;DHT22;29610;49.022;12.114;2024-01-15T13:35:23;0.70;98.80
18794;DHT22;29610;49.022;12.114;2024-01-15T13:37:51;0.80;98.90
18794;DHT22;29610;49.022;12.114;2024-01-15T13:40:19;0.60;99.00
18794;DHT22;29610;49.022;12.114;2024-01-15T13:42:48;0.80;99.60
18794;DHT22;29610;49.022;12.114;2024-01-15T13:45:19;0.80;99.50
18794;DHT22;29610;49.022;12.114;2024-01-15T13:47:48;0.90;99.50
18794;DHT22;29610;49.022;12.114;2024-01-15T13:50:17;0.80;99.20
18794;DHT22;29610;49.022;12.114;2024-01-15T13:52:45;0.60;99.40
18794;DHT22;29610;49.022;12.114;2024-01-15T13:55:13;0.50;99.80
18794;DHT22;29610;49.022;12.114;2024-01-15T13:57:42;0.60;99.90
18794;DHT22;29610;49.022;12.114;2024-01-15T14:00:11;0.60;99.90
18794;DHT22;29610;49.022;12.114;2024-01-15T14:02:45;0.50;99.90
18794;DHT22;29610;49.022;12.114;2024-01-15T14:05:15;0.50;99.90
18794;DHT22;29610;49.022;12.114;2024-01-15T14:07:43;0.50;99.90
18794;DHT22;29610;49.022;12.114;2024-01-15T14:10:12;0.40;99.90
18794;DHT22;29610;49.022;12.114;2024-01-15T14:12:40;0.40;99.90
18794;DHT22;29610;49.022;12.114;2024-01-15T14:15:09;0.40;99.90
18794;DHT22;29610;49.022;12.114;2024-01-15T14:17:37;0.30;99.90
18794;DHT22;29610;49.022;12.114;2024-01-15T14:20:07;0.30;99.90
18794;DHT22;29610;49.022;12.114;2024-01-15T14:22:38;0.20;99.90
18794;DHT22;29610;49.022;12.114;2024-01-15T14:25:07;0.10;99.90
18794;DHT22;29610;49.022;12.114;2024-01-15T14:27:36;0.20;99.90
18794;DHT22;29610;49.022;12.114;2024-01-15T14:30:05;0.20;99.90
18794;DHT22;29610;49.022;12.114;2024-01-15T14:32:35;0.10;99.90
18794;DHT22;29610;49.022;12.114;2024-01-15T14:35:04;0.00;99.90
18794;DHT22;29610;49.022;12.114;2024-01-15T14:37:35;0.00;99.90
18794;DHT22;29610;49.022;12.114;2024-01-15T14:40:05;0.00;99.90
18794;DHT22;29610;49.022;12.114;2024-01-15T14:42:35;-0.10;99.90
18794;DHT22;29610;49.022;12.114;2024-01-15T14:45:04;-0.10;99.90
18794;DHT22;29610;49.022;12.114;2024-01-15T14:47:39;-0.20;99.90
18794;DHT22;29610;49.022;12.114;2024-01-15T14:50:09;-0.20;99.90
18794;DHT22;29610;49.022;12.114;2024-01-15T14:52:39;-0.20;99.90
18794;DHT22;29610;49.022;12.114;2024-01-15T14:55:10;-0.20;99.90
18794;DHT22;29610;49.022;12.114;2024-01-15T14:57:38;-0.20;99.90
18794;DHT22;29610;49.022;12.114;2024-01-15T15:00:07;-0.20;99.90
18794;DHT22;29610;49.022;12.114;2024-01-15T15:02:36;-0.20;99.90
18794;DHT22;29610;49.022;12.114;2024-01-15T15:05:06;-0.20;99.90
18794;DHT22;29610;49.022;12.114;2024-01-15T15:07:35;-0.20;99.90
18794;DHT22;29610;49.022;12.114;2024-01-15T15:10:05;-0.10;99.90
18794;DHT22;29610;49.022;12.114;2024-01-15T15:12:35;-0.20;99.90
18794;DHT22;29610;49.022;12.114;2024-01-15T15:15:05;-0.20;99.90
18794;DHT22;29610;49.022;12.114;2024-01-15T15:17:38;-0.20;99.90
18794;DHT22;29610;49.022;12.114;2024-01-15T15:20:08;-0.20;99.90
18794;DHT22;29610;49.022;12.114;2024-01-15T15:22:37;0.40;99.90
18794;DHT22;29610;49.022;12.114;2024-01-15T15:25:06;-0.20;99.90
18794;DHT22;29610;49.022;12.114;2024-01-15T15:27:37;-0.20;99.90
18794;DHT22;29610;49.022;12.114;2024-01-15T15:30:07;-0.30;99.90
18794;DHT22;29610;49.022;12.114;2024-01-15T15:32:36;-0.30;99.90
18794;DHT22;29610;49.022;12.114;2024-01-15T15:35:05;-0.40;99.90
18794;DHT22;29610;49.022;12.114;2024-01-15T15:37:34;-0.40;99.90
18794;DHT22;29610;49.022;12.114;2024-01-15T15:40:03;-0.40;99.90